SAS49 EKCH-LHBP
Flight info
| Callsign | SAS49 |
|---|---|
| Flight time | 1h 23m |
| Altitude | 37000 |
| Route | SALLO M44 KOGIM DCT BINKA DCT DESEN DCT VALPI DCT NIT/N0358F230 M748 ARFOX |
| Aircraft | A333/H-SDE3GHIJ2J3J5M1RVWXY/LB2D1 |
Departure
| Time | 2026-04-24 13:14 |
|---|---|
| Airport | Copenhagen Kastrup Airport (EKCH) |
Arrival
| Time | 2026-04-24 14:37 |
|---|---|
| Airport | Budapest Liszt Ferenc International Airport (LHBP) |
| Time | Latitude | Longitude | Altitude | Speed | Heading |
|---|---|---|---|---|---|
| 2026-04-24 12:50 | 55.62430 | 12.65067 | 23 ft | 0 kts | 268° |
| 2026-04-24 13:03 | 55.62430 | 12.65073 | 23 ft | 0 kts | 268° |
| 2026-04-24 13:03 | 55.62431 | 12.65096 | 23 ft | 2 kts | 257° |
| 2026-04-24 13:03 | 55.62436 | 12.65121 | 23 ft | 2 kts | 243° |
| 2026-04-24 13:03 | 55.62443 | 12.65144 | 23 ft | 2 kts | 230° |
| 2026-04-24 13:04 | 55.62454 | 12.65162 | 23 ft | 2 kts | 217° |
| 2026-04-24 13:04 | 55.62466 | 12.65176 | 23 ft | 2 kts | 204° |
| 2026-04-24 13:04 | 55.62480 | 12.65184 | 23 ft | 2 kts | 191° |
| 2026-04-24 13:04 | 55.62494 | 12.65187 | 23 ft | 0 kts | 179° |
| 2026-04-24 13:05 | 55.62497 | 12.65187 | 23 ft | 0 kts | 178° |
| 2026-04-24 13:07 | 55.62489 | 12.65188 | 23 ft | 6 kts | 174° |
| 2026-04-24 13:07 | 55.62398 | 12.65204 | 23 ft | 15 kts | 179° |
| 2026-04-24 13:07 | 55.62292 | 12.65200 | 22 ft | 16 kts | 183° |
| 2026-04-24 13:07 | 55.62183 | 12.65148 | 20 ft | 17 kts | 210° |
| 2026-04-24 13:08 | 55.62085 | 12.65031 | 20 ft | 16 kts | 214° |
| 2026-04-24 13:08 | 55.61987 | 12.64921 | 20 ft | 16 kts | 212° |
| 2026-04-24 13:08 | 55.61882 | 12.64801 | 20 ft | 20 kts | 213° |
| 2026-04-24 13:09 | 55.61595 | 12.64473 | 20 ft | 28 kts | 213° |
| 2026-04-24 13:09 | 55.61403 | 12.64252 | 21 ft | 24 kts | 214° |
| 2026-04-24 13:09 | 55.61257 | 12.64082 | 22 ft | 24 kts | 212° |
| 2026-04-24 13:09 | 55.61110 | 12.63916 | 22 ft | 24 kts | 211° |
| 2026-04-24 13:10 | 55.60965 | 12.63752 | 22 ft | 24 kts | 214° |
| 2026-04-24 13:10 | 55.60823 | 12.63587 | 20 ft | 25 kts | 213° |
| 2026-04-24 13:10 | 55.60675 | 12.63416 | 20 ft | 25 kts | 214° |
| 2026-04-24 13:10 | 55.60538 | 12.63211 | 19 ft | 25 kts | 222° |
| 2026-04-24 13:11 | 55.60441 | 12.63118 | 19 ft | 14 kts | 167° |
| 2026-04-24 13:11 | 55.60363 | 12.63226 | 17 ft | 14 kts | 128° |
| 2026-04-24 13:11 | 55.60337 | 12.63332 | 17 ft | 5 kts | 75° |
| 2026-04-24 13:11 | 55.60355 | 12.63373 | 17 ft | 0 kts | 44° |
| 2026-04-24 13:12 | 55.60356 | 12.63375 | 17 ft | 0 kts | 41° |
| 2026-04-24 13:13 | 55.60374 | 12.63403 | 17 ft | 19 kts | 41° |
| 2026-04-24 13:14 | 55.60687 | 12.63887 | 20 ft | 98 kts | 40° |
| 2026-04-24 13:14 | 55.61374 | 12.64946 | 47 ft | 159 kts | 38° |
| 2026-04-24 13:14 | 55.62197 | 12.66258 | 818 ft | 160 kts | 40° |
| 2026-04-24 13:14 | 55.63002 | 12.67590 | 1642 ft | 164 kts | 36° |
| 2026-04-24 13:15 | 55.63855 | 12.68836 | 2229 ft | 168 kts | 36° |
| 2026-04-24 13:15 | 55.64743 | 12.70280 | 2667 ft | 182 kts | 36° |
| 2026-04-24 13:15 | 55.65679 | 12.71922 | 3143 ft | 198 kts | 50° |
| 2026-04-24 13:15 | 55.66176 | 12.74290 | 3508 ft | 227 kts | 82° |
| 2026-04-24 13:16 | 55.65823 | 12.77152 | 4012 ft | 256 kts | 115° |
| 2026-04-24 13:16 | 55.64602 | 12.79545 | 4607 ft | 277 kts | 146° |
| 2026-04-24 13:16 | 55.62799 | 12.80825 | 5299 ft | 289 kts | 167° |
| 2026-04-24 13:16 | 55.60782 | 12.81193 | 6153 ft | 293 kts | 187° |
| 2026-04-24 13:17 | 55.58799 | 12.80560 | 7075 ft | 295 kts | 196° |
| 2026-04-24 13:17 | 55.56823 | 12.79700 | 8031 ft | 296 kts | 198° |
| 2026-04-24 13:17 | 55.54844 | 12.78766 | 8926 ft | 300 kts | 199° |
| 2026-04-24 13:17 | 55.52834 | 12.77798 | 9800 ft | 304 kts | 199° |
| 2026-04-24 13:18 | 55.50721 | 12.77280 | 10571 ft | 317 kts | 180° |
| 2026-04-24 13:18 | 55.48484 | 12.77821 | 11180 ft | 334 kts | 174° |
| 2026-04-24 13:18 | 55.46136 | 12.78343 | 11603 ft | 352 kts | 175° |
| 2026-04-24 13:18 | 55.43634 | 12.78892 | 12082 ft | 370 kts | 175° |
| 2026-04-24 13:19 | 55.41034 | 12.79450 | 12563 ft | 388 kts | 175° |
| 2026-04-24 13:19 | 55.38304 | 12.80038 | 12982 ft | 400 kts | 175° |
| 2026-04-24 13:19 | 55.35553 | 12.80636 | 13742 ft | 404 kts | 174° |
| 2026-04-24 13:19 | 55.32833 | 12.81959 | 14582 ft | 413 kts | 158° |
| 2026-04-24 13:20 | 55.30428 | 12.84677 | 15322 ft | 418 kts | 139° |
| 2026-04-24 13:20 | 55.28236 | 12.88053 | 15972 ft | 421 kts | 141° |
| 2026-04-24 13:20 | 55.25949 | 12.91251 | 16711 ft | 426 kts | 142° |
| 2026-04-24 13:20 | 55.23638 | 12.94483 | 17391 ft | 431 kts | 142° |
| 2026-04-24 13:21 | 55.21294 | 12.97752 | 18013 ft | 435 kts | 142° |
| 2026-04-24 13:21 | 55.18926 | 13.01050 | 18629 ft | 440 kts | 142° |
| 2026-04-24 13:21 | 55.16519 | 13.04387 | 19269 ft | 445 kts | 142° |
| 2026-04-24 13:21 | 55.14114 | 13.07724 | 19902 ft | 449 kts | 143° |
| 2026-04-24 13:22 | 55.11668 | 13.11111 | 20506 ft | 453 kts | 142° |
| 2026-04-24 13:22 | 55.09190 | 13.14539 | 21078 ft | 457 kts | 143° |
| 2026-04-24 13:22 | 55.06680 | 13.18005 | 21614 ft | 462 kts | 143° |
| 2026-04-24 13:22 | 55.04184 | 13.21443 | 22147 ft | 466 kts | 142° |
| 2026-04-24 13:23 | 55.01620 | 13.24973 | 22672 ft | 470 kts | 143° |
| 2026-04-24 13:23 | 54.99068 | 13.28477 | 23230 ft | 473 kts | 143° |
| 2026-04-24 13:23 | 54.96492 | 13.32011 | 23716 ft | 477 kts | 143° |
| 2026-04-24 13:23 | 54.93881 | 13.35562 | 24210 ft | 480 kts | 144° |
| 2026-04-24 13:24 | 54.91011 | 13.38377 | 24673 ft | 478 kts | 160° |
| 2026-04-24 13:24 | 54.87806 | 13.39800 | 25165 ft | 473 kts | 176° |
| 2026-04-24 13:24 | 54.84512 | 13.40559 | 25665 ft | 477 kts | 175° |
| 2026-04-24 13:24 | 54.81240 | 13.41406 | 26122 ft | 481 kts | 175° |
| 2026-04-24 13:25 | 54.77938 | 13.42272 | 26584 ft | 484 kts | 175° |
| 2026-04-24 13:25 | 54.74596 | 13.43156 | 27058 ft | 488 kts | 175° |
| 2026-04-24 13:25 | 54.71249 | 13.44041 | 27591 ft | 490 kts | 175° |
| 2026-04-24 13:25 | 54.67899 | 13.44924 | 28033 ft | 493 kts | 175° |
| 2026-04-24 13:26 | 54.64526 | 13.45812 | 28474 ft | 496 kts | 175° |
| 2026-04-24 13:26 | 54.61079 | 13.46719 | 28914 ft | 499 kts | 175° |
| 2026-04-24 13:26 | 54.57662 | 13.47617 | 29323 ft | 502 kts | 175° |
| 2026-04-24 13:26 | 54.54210 | 13.48522 | 29777 ft | 504 kts | 176° |
| 2026-04-24 13:27 | 54.50734 | 13.49432 | 30298 ft | 504 kts | 175° |
| 2026-04-24 13:27 | 54.47303 | 13.50328 | 30831 ft | 503 kts | 175° |
| 2026-04-24 13:27 | 54.43833 | 13.51234 | 31393 ft | 502 kts | 176° |
| 2026-04-24 13:27 | 54.40414 | 13.52125 | 31939 ft | 501 kts | 176° |
| 2026-04-24 13:28 | 54.36964 | 13.53022 | 32465 ft | 500 kts | 176° |
| 2026-04-24 13:28 | 54.33562 | 13.54048 | 32986 ft | 502 kts | 170° |
| 2026-04-24 13:28 | 54.30315 | 13.56251 | 33425 ft | 511 kts | 154° |
| 2026-04-24 13:28 | 54.27412 | 13.59824 | 33918 ft | 514 kts | 141° |
| 2026-04-24 13:29 | 54.24670 | 13.63679 | 34353 ft | 514 kts | 143° |
| 2026-04-24 13:29 | 54.21868 | 13.67443 | 34825 ft | 513 kts | 144° |
| 2026-04-24 13:29 | 54.19062 | 13.71178 | 35301 ft | 512 kts | 145° |
| 2026-04-24 13:29 | 54.16284 | 13.74862 | 35748 ft | 511 kts | 145° |
| 2026-04-24 13:30 | 54.13477 | 13.78569 | 36199 ft | 510 kts | 145° |
| 2026-04-24 13:30 | 54.10679 | 13.82264 | 36653 ft | 508 kts | 145° |
| 2026-04-24 13:30 | 54.07887 | 13.85939 | 37050 ft | 508 kts | 145° |
| 2026-04-24 13:30 | 54.05096 | 13.89604 | 37113 ft | 514 kts | 145° |
| 2026-04-24 13:31 | 53.99408 | 13.97063 | 37041 ft | 523 kts | 145° |
| 2026-04-24 13:31 | 53.93637 | 14.04602 | 37053 ft | 518 kts | 145° |
| 2026-04-24 13:32 | 53.88029 | 14.11899 | 37053 ft | 518 kts | 144° |
| 2026-04-24 13:32 | 53.82169 | 14.19503 | 37058 ft | 520 kts | 144° |
| 2026-04-24 13:33 | 53.76500 | 14.26828 | 37052 ft | 519 kts | 145° |
| 2026-04-24 13:33 | 53.70318 | 14.33290 | 37066 ft | 517 kts | 152° |
| 2026-04-24 13:34 | 53.64159 | 14.39510 | 37060 ft | 516 kts | 151° |
| 2026-04-24 13:34 | 53.58017 | 14.45713 | 37088 ft | 516 kts | 152° |
| 2026-04-24 13:35 | 53.51919 | 14.51849 | 37078 ft | 517 kts | 152° |
| 2026-04-24 13:35 | 53.45690 | 14.58094 | 37082 ft | 518 kts | 151° |
| 2026-04-24 13:36 | 53.39531 | 14.64251 | 37073 ft | 517 kts | 151° |
| 2026-04-24 13:36 | 53.33354 | 14.70404 | 37048 ft | 519 kts | 152° |
| 2026-04-24 13:37 | 53.27189 | 14.76522 | 37051 ft | 517 kts | 152° |
| 2026-04-24 13:37 | 53.21025 | 14.82622 | 37067 ft | 516 kts | 152° |
| 2026-04-24 13:38 | 53.14821 | 14.88739 | 37053 ft | 518 kts | 152° |
| 2026-04-24 13:38 | 53.08666 | 14.94784 | 37063 ft | 518 kts | 152° |
| 2026-04-24 13:39 | 53.02491 | 15.00833 | 37053 ft | 517 kts | 152° |
| 2026-04-24 13:39 | 52.96272 | 15.06904 | 37060 ft | 518 kts | 151° |
| 2026-04-24 13:40 | 52.90111 | 15.12895 | 37054 ft | 518 kts | 152° |
| 2026-04-24 13:40 | 52.83895 | 15.18922 | 37057 ft | 517 kts | 152° |
| 2026-04-24 13:41 | 52.77708 | 15.24897 | 37055 ft | 516 kts | 151° |
| 2026-04-24 13:41 | 52.71512 | 15.30865 | 37060 ft | 517 kts | 151° |
| 2026-04-24 13:42 | 52.65352 | 15.36782 | 37061 ft | 516 kts | 152° |
| 2026-04-24 13:42 | 52.59142 | 15.42723 | 37052 ft | 519 kts | 151° |
| 2026-04-24 13:43 | 52.52931 | 15.48646 | 37068 ft | 517 kts | 151° |
| 2026-04-24 13:43 | 52.46711 | 15.54557 | 37070 ft | 518 kts | 151° |
| 2026-04-24 13:44 | 52.40510 | 15.60428 | 37107 ft | 518 kts | 151° |
| 2026-04-24 13:44 | 52.34232 | 15.66357 | 37123 ft | 518 kts | 152° |
| 2026-04-24 13:45 | 52.27994 | 15.72230 | 37115 ft | 517 kts | 152° |
| 2026-04-24 13:45 | 52.21710 | 15.78119 | 37116 ft | 517 kts | 152° |
| 2026-04-24 13:46 | 52.15529 | 15.83898 | 37120 ft | 517 kts | 151° |
| 2026-04-24 13:46 | 52.09294 | 15.89708 | 37127 ft | 516 kts | 151° |
| 2026-04-24 13:47 | 52.03076 | 15.95482 | 37134 ft | 518 kts | 151° |
| 2026-04-24 13:47 | 51.96833 | 16.01265 | 37128 ft | 517 kts | 151° |
| 2026-04-24 13:48 | 51.90578 | 16.07039 | 37126 ft | 517 kts | 151° |
| 2026-04-24 13:48 | 51.85428 | 16.11773 | 37077 ft | 517 kts | 151° |
| 2026-04-24 13:49 | 51.79212 | 16.17479 | 37083 ft | 517 kts | 152° |
| 2026-04-24 13:49 | 51.72971 | 16.23185 | 37082 ft | 518 kts | 151° |
| 2026-04-24 13:50 | 51.66700 | 16.28901 | 37086 ft | 517 kts | 151° |
| 2026-04-24 13:50 | 51.60490 | 16.34544 | 37086 ft | 516 kts | 150° |
| 2026-04-24 13:51 | 51.54238 | 16.40208 | 37091 ft | 516 kts | 150° |
| 2026-04-24 13:51 | 51.48004 | 16.45835 | 37086 ft | 517 kts | 150° |
| 2026-04-24 13:52 | 51.41720 | 16.51491 | 37096 ft | 515 kts | 150° |
| 2026-04-24 13:52 | 51.35488 | 16.57082 | 37096 ft | 517 kts | 150° |
| 2026-04-24 13:53 | 51.29955 | 16.62033 | 37131 ft | 516 kts | 150° |
| 2026-04-24 13:53 | 51.29137 | 16.62761 | 37139 ft | 516 kts | 150° |
| 2026-04-24 13:54 | 51.28210 | 16.63587 | 37142 ft | 516 kts | 150° |
| 2026-04-24 13:54 | 51.21933 | 16.69183 | 37122 ft | 515 kts | 151° |
| 2026-04-24 13:55 | 51.15704 | 16.74715 | 37130 ft | 515 kts | 151° |
| 2026-04-24 13:55 | 51.09462 | 16.80245 | 37133 ft | 515 kts | 151° |
| 2026-04-24 13:56 | 51.03174 | 16.85795 | 37131 ft | 515 kts | 151° |
| 2026-04-24 13:56 | 50.96919 | 16.91298 | 37130 ft | 515 kts | 150° |
| 2026-04-24 13:57 | 50.90616 | 16.96831 | 37122 ft | 516 kts | 151° |
| 2026-04-24 13:57 | 50.84356 | 17.02301 | 37115 ft | 514 kts | 150° |
| 2026-04-24 13:58 | 50.78110 | 17.07749 | 37096 ft | 514 kts | 151° |
| 2026-04-24 13:58 | 50.71840 | 17.13197 | 37058 ft | 514 kts | 150° |
| 2026-04-24 13:59 | 50.65762 | 17.18467 | 37064 ft | 515 kts | 150° |
| 2026-04-24 13:59 | 50.59325 | 17.24026 | 37065 ft | 515 kts | 150° |
| 2026-04-24 14:00 | 50.53024 | 17.29451 | 37061 ft | 514 kts | 150° |
| 2026-04-24 14:00 | 50.46777 | 17.34816 | 37056 ft | 513 kts | 150° |
| 2026-04-24 14:01 | 50.40487 | 17.40202 | 37058 ft | 516 kts | 150° |
| 2026-04-24 14:01 | 50.34253 | 17.45519 | 37047 ft | 516 kts | 150° |
| 2026-04-24 14:02 | 50.27949 | 17.50836 | 37059 ft | 516 kts | 153° |
| 2026-04-24 14:02 | 50.24650 | 17.52667 | 37054 ft | 514 kts | 167° |
| 2026-04-24 14:02 | 50.21085 | 17.53838 | 37069 ft | 516 kts | 168° |
| 2026-04-24 14:03 | 50.14111 | 17.56285 | 37045 ft | 515 kts | 167° |
| 2026-04-24 14:03 | 50.07148 | 17.58751 | 37060 ft | 515 kts | 167° |
| 2026-04-24 14:04 | 50.00174 | 17.61217 | 37043 ft | 514 kts | 167° |
| 2026-04-24 14:04 | 49.93209 | 17.63674 | 37044 ft | 515 kts | 167° |
| 2026-04-24 14:05 | 49.86360 | 17.66083 | 37026 ft | 514 kts | 168° |
| 2026-04-24 14:05 | 49.79297 | 17.68557 | 37057 ft | 513 kts | 167° |
| 2026-04-24 14:06 | 49.72352 | 17.70986 | 37058 ft | 514 kts | 168° |
| 2026-04-24 14:06 | 49.65377 | 17.73415 | 37062 ft | 513 kts | 167° |
| 2026-04-24 14:07 | 49.58467 | 17.75815 | 37062 ft | 514 kts | 167° |
| 2026-04-24 14:07 | 49.51495 | 17.78233 | 37053 ft | 515 kts | 167° |
| 2026-04-24 14:08 | 49.44444 | 17.80666 | 37052 ft | 514 kts | 167° |
| 2026-04-24 14:08 | 49.37525 | 17.83051 | 37050 ft | 513 kts | 167° |
| 2026-04-24 14:09 | 49.30553 | 17.85444 | 37045 ft | 515 kts | 167° |
| 2026-04-24 14:09 | 49.23570 | 17.87834 | 37048 ft | 514 kts | 167° |
| 2026-04-24 14:10 | 49.16670 | 17.90190 | 37049 ft | 515 kts | 167° |
| 2026-04-24 14:10 | 49.09684 | 17.92569 | 37048 ft | 513 kts | 167° |
| 2026-04-24 14:11 | 49.02737 | 17.94909 | 37045 ft | 512 kts | 168° |
| 2026-04-24 14:12 | 48.92045 | 17.96469 | 37047 ft | 506 kts | 175° |
| 2026-04-24 14:12 | 48.85110 | 17.97421 | 37036 ft | 497 kts | 174° |
| 2026-04-24 14:13 | 48.78344 | 17.98350 | 36591 ft | 487 kts | 174° |
| 2026-04-24 14:13 | 48.74898 | 17.98822 | 35395 ft | 489 kts | 174° |
| 2026-04-24 14:13 | 48.71793 | 17.99249 | 33998 ft | 496 kts | 174° |
| 2026-04-24 14:13 | 48.68084 | 17.99760 | 32393 ft | 502 kts | 175° |
| 2026-04-24 14:14 | 48.64590 | 18.00236 | 31396 ft | 496 kts | 175° |
| 2026-04-24 14:14 | 48.61310 | 18.00682 | 30724 ft | 486 kts | 175° |
| 2026-04-24 14:14 | 48.54686 | 18.01586 | 29561 ft | 462 kts | 175° |
| 2026-04-24 14:15 | 48.51423 | 18.02029 | 29013 ft | 451 kts | 175° |
| 2026-04-24 14:15 | 48.48383 | 18.02442 | 28523 ft | 446 kts | 175° |
| 2026-04-24 14:15 | 48.45398 | 18.02847 | 28003 ft | 445 kts | 175° |
| 2026-04-24 14:15 | 48.42173 | 18.03284 | 27455 ft | 442 kts | 175° |
| 2026-04-24 14:16 | 48.39086 | 18.03701 | 26942 ft | 440 kts | 175° |
| 2026-04-24 14:16 | 48.36085 | 18.04106 | 26479 ft | 437 kts | 175° |
| 2026-04-24 14:16 | 48.33075 | 18.04514 | 26035 ft | 432 kts | 175° |
| 2026-04-24 14:17 | 48.27575 | 18.07628 | 25123 ft | 420 kts | 140° |
| 2026-04-24 14:17 | 48.25560 | 18.10713 | 24667 ft | 413 kts | 127° |
| 2026-04-24 14:17 | 48.21767 | 18.17189 | 23673 ft | 408 kts | 129° |
| 2026-04-24 14:18 | 48.19899 | 18.20312 | 23155 ft | 406 kts | 130° |
| 2026-04-24 14:18 | 48.17995 | 18.23481 | 22638 ft | 404 kts | 130° |
| 2026-04-24 14:18 | 48.16159 | 18.26529 | 22135 ft | 401 kts | 130° |
| 2026-04-24 14:18 | 48.14268 | 18.29667 | 21627 ft | 398 kts | 130° |
| 2026-04-24 14:19 | 48.12425 | 18.32720 | 21133 ft | 395 kts | 129° |
| 2026-04-24 14:19 | 48.10713 | 18.35553 | 20690 ft | 391 kts | 129° |
| 2026-04-24 14:19 | 48.08826 | 18.38672 | 20202 ft | 388 kts | 129° |
| 2026-04-24 14:19 | 48.06976 | 18.41724 | 19731 ft | 385 kts | 129° |
| 2026-04-24 14:20 | 48.05199 | 18.44657 | 19274 ft | 381 kts | 130° |
| 2026-04-24 14:20 | 48.03397 | 18.47624 | 18820 ft | 381 kts | 130° |
| 2026-04-24 14:20 | 48.01792 | 18.50267 | 18415 ft | 380 kts | 130° |
| 2026-04-24 14:20 | 47.99909 | 18.53363 | 17924 ft | 375 kts | 130° |
| 2026-04-24 14:21 | 47.98113 | 18.56308 | 17473 ft | 374 kts | 130° |
| 2026-04-24 14:21 | 47.96387 | 18.59161 | 17028 ft | 371 kts | 129° |
| 2026-04-24 14:21 | 47.94677 | 18.62000 | 16582 ft | 369 kts | 129° |
| 2026-04-24 14:21 | 47.92960 | 18.64852 | 16132 ft | 367 kts | 129° |
| 2026-04-24 14:22 | 47.91255 | 18.67679 | 15675 ft | 366 kts | 130° |
| 2026-04-24 14:22 | 47.89538 | 18.70520 | 15218 ft | 364 kts | 130° |
| 2026-04-24 14:22 | 47.86174 | 18.76082 | 14277 ft | 360 kts | 130° |
| 2026-04-24 14:23 | 47.84512 | 18.78825 | 13802 ft | 359 kts | 130° |
| 2026-04-24 14:23 | 47.82836 | 18.81588 | 13324 ft | 357 kts | 130° |
| 2026-04-24 14:23 | 47.81209 | 18.84270 | 12869 ft | 355 kts | 130° |
| 2026-04-24 14:23 | 47.79538 | 18.87022 | 12398 ft | 353 kts | 130° |
| 2026-04-24 14:24 | 47.77881 | 18.89746 | 11942 ft | 350 kts | 130° |
| 2026-04-24 14:24 | 47.76252 | 18.92422 | 11507 ft | 348 kts | 130° |
| 2026-04-24 14:24 | 47.74643 | 18.95059 | 11059 ft | 346 kts | 130° |
| 2026-04-24 14:24 | 47.73012 | 18.97731 | 10690 ft | 344 kts | 130° |
| 2026-04-24 14:25 | 47.71478 | 19.00244 | 10337 ft | 339 kts | 130° |
| 2026-04-24 14:25 | 47.69832 | 19.02937 | 10189 ft | 334 kts | 130° |
| 2026-04-24 14:25 | 47.68286 | 19.05459 | 10092 ft | 321 kts | 130° |
| 2026-04-24 14:25 | 47.66804 | 19.07878 | 10054 ft | 310 kts | 130° |
| 2026-04-24 14:26 | 47.65387 | 19.10186 | 9906 ft | 298 kts | 130° |
| 2026-04-24 14:26 | 47.64006 | 19.12437 | 9665 ft | 295 kts | 130° |
| 2026-04-24 14:26 | 47.62714 | 19.14543 | 9387 ft | 293 kts | 130° |
| 2026-04-24 14:26 | 47.61263 | 19.16903 | 9107 ft | 290 kts | 130° |
| 2026-04-24 14:27 | 47.59914 | 19.19093 | 8857 ft | 288 kts | 130° |
| 2026-04-24 14:27 | 47.58562 | 19.21290 | 8599 ft | 285 kts | 130° |
| 2026-04-24 14:27 | 47.57304 | 19.23332 | 8366 ft | 283 kts | 130° |
| 2026-04-24 14:27 | 47.55905 | 19.25599 | 8107 ft | 280 kts | 130° |
| 2026-04-24 14:28 | 47.54590 | 19.27731 | 7864 ft | 278 kts | 130° |
| 2026-04-24 14:28 | 47.53305 | 19.29811 | 7628 ft | 276 kts | 130° |
| 2026-04-24 14:28 | 47.51988 | 19.31942 | 7389 ft | 274 kts | 130° |
| 2026-04-24 14:28 | 47.50715 | 19.33999 | 7158 ft | 272 kts | 130° |
| 2026-04-24 14:29 | 47.49442 | 19.36052 | 6922 ft | 270 kts | 130° |
| 2026-04-24 14:29 | 47.48185 | 19.38082 | 6689 ft | 268 kts | 130° |
| 2026-04-24 14:29 | 47.46949 | 19.40075 | 6460 ft | 267 kts | 130° |
| 2026-04-24 14:29 | 47.45694 | 19.42095 | 6223 ft | 265 kts | 130° |
| 2026-04-24 14:30 | 47.44839 | 19.43470 | 6058 ft | 264 kts | 130° |
| 2026-04-24 14:30 | 47.43189 | 19.46127 | 5735 ft | 262 kts | 130° |
| 2026-04-24 14:30 | 47.42063 | 19.47935 | 5513 ft | 256 kts | 131° |
| 2026-04-24 14:30 | 47.40750 | 19.50043 | 5242 ft | 256 kts | 130° |
| 2026-04-24 14:31 | 47.39539 | 19.51986 | 4984 ft | 257 kts | 130° |
| 2026-04-24 14:31 | 47.38334 | 19.53920 | 4721 ft | 256 kts | 131° |
| 2026-04-24 14:31 | 47.37021 | 19.55623 | 4516 ft | 253 kts | 152° |
| 2026-04-24 14:31 | 47.35332 | 19.56218 | 4444 ft | 244 kts | 185° |
| 2026-04-24 14:32 | 47.33763 | 19.55485 | 4338 ft | 237 kts | 218° |
| 2026-04-24 14:32 | 47.32721 | 19.53691 | 4264 ft | 223 kts | 251° |
| 2026-04-24 14:32 | 47.32538 | 19.51561 | 4189 ft | 202 kts | 284° |
| 2026-04-24 14:32 | 47.32836 | 19.49625 | 4128 ft | 187 kts | 285° |
| 2026-04-24 14:33 | 47.33214 | 19.47834 | 3868 ft | 184 kts | 292° |
| 2026-04-24 14:33 | 47.33767 | 19.46191 | 3775 ft | 170 kts | 302° |
| 2026-04-24 14:33 | 47.34241 | 19.44645 | 3751 ft | 164 kts | 294° |
| 2026-04-24 14:33 | 47.34635 | 19.43053 | 3231 ft | 167 kts | 296° |
| 2026-04-24 14:34 | 47.35186 | 19.41599 | 2672 ft | 153 kts | 305° |
| 2026-04-24 14:34 | 47.35703 | 19.40358 | 2290 ft | 136 kts | 303° |
| 2026-04-24 14:34 | 47.36223 | 19.39351 | 2021 ft | 129 kts | 314° |
| 2026-04-24 14:34 | 47.36786 | 19.38258 | 1879 ft | 126 kts | 308° |
| 2026-04-24 14:35 | 47.37343 | 19.37263 | 1743 ft | 124 kts | 314° |
| 2026-04-24 14:35 | 47.37956 | 19.36338 | 1831 ft | 133 kts | 317° |
| 2026-04-24 14:35 | 47.38517 | 19.35441 | 1578 ft | 129 kts | 313° |
| 2026-04-24 14:35 | 47.39173 | 19.34379 | 1354 ft | 127 kts | 313° |
| 2026-04-24 14:36 | 47.39772 | 19.33407 | 1161 ft | 130 kts | 315° |
| 2026-04-24 14:36 | 47.40393 | 19.32432 | 949 ft | 128 kts | 315° |
| 2026-04-24 14:36 | 47.41004 | 19.31460 | 756 ft | 130 kts | 313° |
| 2026-04-24 14:36 | 47.41602 | 19.30500 | 633 ft | 130 kts | 314° |
| 2026-04-24 14:37 | 47.42218 | 19.29511 | 468 ft | 130 kts | 314° |
| 2026-04-24 14:37 | 47.42772 | 19.28615 | 424 ft | 94 kts | 312° |
| 2026-04-24 14:37 | 47.43090 | 19.28103 | 439 ft | 56 kts | 311° |
| 2026-04-24 14:37 | 47.43353 | 19.27683 | 451 ft | 48 kts | 313° |
| 2026-04-24 14:38 | 47.43561 | 19.27352 | 462 ft | 39 kts | 314° |
| 2026-04-24 14:38 | 47.43707 | 19.27062 | 470 ft | 19 kts | 291° |
| 2026-04-24 14:38 | 47.43739 | 19.26926 | 473 ft | 12 kts | 285° |
| 2026-04-24 14:38 | 47.43760 | 19.26784 | 477 ft | 19 kts | 282° |
| 2026-04-24 14:39 | 47.43797 | 19.26546 | 480 ft | 25 kts | 282° |
| 2026-04-24 14:39 | 47.43849 | 19.26315 | 483 ft | 19 kts | 316° |
| 2026-04-24 14:39 | 47.43914 | 19.26158 | 483 ft | 17 kts | 253° |
| 2026-04-24 14:39 | 47.43831 | 19.26045 | 483 ft | 16 kts | 221° |
| 2026-04-24 14:40 | 47.43749 | 19.25936 | 481 ft | 16 kts | 222° |
| 2026-04-24 14:40 | 47.43649 | 19.25799 | 479 ft | 23 kts | 222° |
| 2026-04-24 14:40 | 47.43521 | 19.25622 | 474 ft | 27 kts | 223° |
| 2026-04-24 14:40 | 47.43385 | 19.25442 | 471 ft | 16 kts | 211° |
| 2026-04-24 14:41 | 47.43293 | 19.25512 | 469 ft | 16 kts | 132° |
| 2026-04-24 14:41 | 47.43214 | 19.25638 | 469 ft | 16 kts | 133° |
| 2026-04-24 14:41 | 47.43181 | 19.25711 | 469 ft | 1 kts | 66° |
| 2026-04-24 14:41 | 47.43201 | 19.25738 | 470 ft | 5 kts | 42° |
| 2026-04-24 14:42 | 47.43223 | 19.25766 | 470 ft | 2 kts | 42° |
| 2026-04-24 14:42 | 47.43231 | 19.25778 | 471 ft | 0 kts | 42° |
| 2026-04-24 14:42 | 47.43234 | 19.25781 | 471 ft | 0 kts | 42° |